Time;durP1;ratioP1;P1;durP2;ratioP2;P2;SDS_P1;SDS_P2;PMS_P1;PMS_P2;Temp;Humidity;BMP_temperature;BMP_pressure;BME280_temperature;BME280_humidity;BME280_pressure;Samples;Min_cycle;Max_cycle;Signal;HPM_P1;HPM_P2
2023/12/16 00:01:44;;;;;;;3.27;2.50;;;15.00;99.90;;;;;;5099526;28;20189;-91
2023/12/16 00:04:12;;;;;;;4.17;2.77;;;15.00;99.90;;;;;;5100438;28;20496;-91
2023/12/16 00:06:41;;;;;;;3.13;2.50;;;15.00;99.90;;;;;;5097669;28;20251;-90
2023/12/16 00:09:07;;;;;;;4.00;2.60;;;15.00;99.90;;;;;;5098396;28;20269;-92
2023/12/16 00:11:33;;;;;;;3.87;2.40;;;15.00;99.90;;;;;;5101443;28;20445;-91
2023/12/16 00:13:59;;;;;;;4.03;2.40;;;15.00;99.90;;;;;;5102036;28;20218;-91
2023/12/16 00:16:27;;;;;;;4.77;2.20;;;15.00;99.90;;;;;;5102635;28;20195;-91
2023/12/16 00:18:53;;;;;;;5.07;2.60;;;15.00;99.90;;;;;;5106866;28;20196;-92
2023/12/16 00:21:20;;;;;;;4.67;2.60;;;15.00;99.90;;;;;;5102115;28;20180;-91
2023/12/16 00:23:46;;;;;;;3.27;2.30;;;15.00;99.90;;;;;;5102065;28;20242;-92
2023/12/16 00:26:15;;;;;;;3.93;2.03;;;15.00;99.90;;;;;;5102731;28;20184;-91
2023/12/16 00:28:40;;;;;;;4.10;2.67;;;15.00;99.90;;;;;;5102260;28;20181;-92
2023/12/16 00:31:09;;;;;;;3.00;2.07;;;15.00;99.90;;;;;;5102480;28;20178;-91
2023/12/16 00:33:38;;;;;;;3.67;2.47;;;15.00;99.90;;;;;;5101509;28;20217;-92
2023/12/16 00:36:10;;;;;;;3.13;2.03;;;15.00;99.90;;;;;;5098577;28;20573;-92
2023/12/16 00:38:38;;;;;;;3.27;2.20;;;14.90;99.90;;;;;;5099689;28;20173;-91
2023/12/16 00:41:05;;;;;;;4.17;2.30;;;15.00;99.90;;;;;;5101452;28;20175;-91
2023/12/16 00:43:34;;;;;;;3.17;2.13;;;15.00;99.90;;;;;;5099495;28;20247;-91
2023/12/16 00:45:59;;;;;;;4.77;2.10;;;15.00;99.90;;;;;;5100287;28;20183;-91
2023/12/16 00:48:28;;;;;;;2.77;2.20;;;14.90;99.90;;;;;;5097093;28;20372;-91
2023/12/16 00:51:00;;;;;;;2.50;2.20;;;14.90;99.90;;;;;;5103934;28;20180;-91
2023/12/16 00:53:29;;;;;;;3.37;2.23;;;14.90;99.90;;;;;;5114397;28;20196;-90
2023/12/16 00:55:55;;;;;;;3.07;2.03;;;14.90;99.90;;;;;;5117782;28;20180;-91
2023/12/16 00:58:20;;;;;;;3.40;2.33;;;14.90;99.90;;;;;;5111823;28;20297;-90
2023/12/16 01:00:52;;;;;;;3.83;2.47;;;14.90;99.90;;;;;;5107582;28;20173;-90
2023/12/16 01:03:21;;;;;;;3.03;2.23;;;14.90;99.90;;;;;;5095915;28;20168;-91
2023/12/16 01:05:49;;;;;;;4.00;2.00;;;14.90;99.90;;;;;;5099003;28;20174;-91
2023/12/16 01:08:18;;;;;;;3.00;2.30;;;14.90;99.90;;;;;;5093445;28;20207;-91
2023/12/16 01:10:47;;;;;;;2.10;1.80;;;14.90;99.90;;;;;;5093561;28;20265;-91
2023/12/16 01:13:16;;;;;;;2.87;2.07;;;14.90;99.90;;;;;;5092829;28;20603;-90
2023/12/16 01:15:44;;;;;;;2.73;2.20;;;14.90;99.90;;;;;;5095145;28;20469;-91
2023/12/16 01:18:13;;;;;;;3.77;2.20;;;14.90;99.90;;;;;;5093833;28;20185;-91
2023/12/16 01:20:45;;;;;;;2.23;2.03;;;15.00;99.90;;;;;;5094256;28;20172;-91
2023/12/16 01:23:14;;;;;;;2.63;2.20;;;14.90;99.90;;;;;;5091955;28;20181;-91
2023/12/16 01:25:42;;;;;;;2.53;2.00;;;14.90;99.90;;;;;;5093196;28;20183;-91
2023/12/16 01:28:08;;;;;;;2.77;2.00;;;14.90;99.90;;;;;;5094555;28;20675;-91
2023/12/16 01:30:35;;;;;;;3.43;2.20;;;14.90;99.90;;;;;;5097296;28;20282;-91
2023/12/16 01:33:04;;;;;;;2.53;2.07;;;14.90;99.90;;;;;;5092842;28;20197;-91
2023/12/16 01:35:32;;;;;;;2.87;2.10;;;14.90;99.90;;;;;;5096735;28;20196;-91
2023/12/16 01:38:01;;;;;;;3.90;2.27;;;14.90;99.90;;;;;;5093814;28;20521;-91
2023/12/16 01:40:29;;;;;;;2.73;2.10;;;14.90;99.90;;;;;;5096809;28;20558;-91
2023/12/16 01:43:03;;;;;;;3.67;2.00;;;14.90;99.90;;;;;;5091614;28;20184;-92
2023/12/16 01:45:29;;;;;;;2.50;2.20;;;14.90;99.90;;;;;;5109393;28;20556;-91
2023/12/16 01:47:55;;;;;;;2.63;1.93;;;14.90;99.90;;;;;;5091723;28;20191;-91
2023/12/16 01:50:23;;;;;;;2.50;2.07;;;14.90;99.90;;;;;;5096610;28;20573;-91
2023/12/16 01:52:51;;;;;;;2.13;1.93;;;14.90;99.90;;;;;;5096196;28;20313;-91
2023/12/16 01:55:19;;;;;;;2.20;2.00;;;14.90;99.90;;;;;;5095150;28;20193;-91
2023/12/16 01:57:45;;;;;;;2.70;1.90;;;14.90;99.90;;;;;;5094304;28;20166;-91
2023/12/16 02:00:20;;;;;;;2.27;2.03;;;14.90;99.90;;;;;;5095328;28;20248;-91
2023/12/16 02:02:49;;;;;;;3.60;2.10;;;14.90;99.90;;;;;;5094335;28;20199;-91
2023/12/16 02:05:21;;;;;;;2.43;1.83;;;14.90;99.90;;;;;;5094809;28;20205;-91
2023/12/16 02:07:50;;;;;;;2.80;2.23;;;14.90;99.90;;;;;;5094284;28;20173;-91
2023/12/16 02:10:19;;;;;;;3.57;2.17;;;14.90;99.90;;;;;;5095275;28;20233;-90
2023/12/16 02:12:45;;;;;;;3.77;2.03;;;14.90;99.90;;;;;;5092176;28;20266;-91
2023/12/16 02:15:13;;;;;;;2.50;1.80;;;14.90;99.90;;;;;;5092126;28;20655;-90
2023/12/16 02:17:39;;;;;;;4.20;2.40;;;14.90;99.90;;;;;;5092636;28;20178;-91
2023/12/16 02:20:05;;;;;;;2.07;1.73;;;14.90;99.90;;;;;;5089230;28;20196;-91
2023/12/16 02:22:34;;;;;;;3.77;2.03;;;14.90;99.90;;;;;;5090268;28;20181;-90
2023/12/16 02:25:03;;;;;;;2.77;2.10;;;14.90;99.90;;;;;;5092559;28;20203;-90
2023/12/16 02:27:29;;;;;;;3.60;2.00;;;14.90;99.90;;;;;;5092634;28;20187;-91
2023/12/16 02:29:57;;;;;;;2.83;2.20;;;14.90;99.90;;;;;;5094446;28;20181;-91
2023/12/16 02:32:27;;;;;;;2.53;2.10;;;14.90;99.90;;;;;;5090965;28;20209;-91
2023/12/16 02:34:56;;;;;;;2.53;2.00;;;14.90;99.90;;;;;;5093410;28;20577;-91
2023/12/16 02:37:24;;;;;;;2.20;2.00;;;14.90;99.90;;;;;;5091373;28;20239;-91
2023/12/16 02:39:53;;;;;;;3.20;1.80;;;14.90;99.90;;;;;;5091925;28;20447;-91
2023/12/16 02:42:21;;;;;;;3.30;1.80;;;14.90;99.90;;;;;;5096217;28;20186;-91
2023/12/16 02:44:50;;;;;;;2.63;1.80;;;14.90;99.90;;;;;;5092101;28;20223;-91
2023/12/16 02:47:16;;;;;;;2.33;1.90;;;14.90;99.90;;;;;;5095008;28;20639;-91
2023/12/16 02:49:44;;;;;;;2.87;1.87;;;14.90;99.90;;;;;;5095264;28;20170;-91
2023/12/16 02:52:13;;;;;;;3.70;2.20;;;14.90;99.90;;;;;;5095146;28;20526;-91
2023/12/16 02:54:42;;;;;;;2.87;2.10;;;14.90;99.90;;;;;;5090658;28;20296;-91
2023/12/16 02:57:08;;;;;;;2.67;2.07;;;14.90;99.90;;;;;;5091591;28;20565;-91
2023/12/16 02:59:36;;;;;;;3.37;2.00;;;14.90;99.90;;;;;;5093880;28;20172;-91
2023/12/16 03:02:03;;;;;;;3.30;1.83;;;14.90;99.90;;;;;;5092240;28;20205;-90
2023/12/16 03:04:32;;;;;;;2.83;2.03;;;14.90;99.90;;;;;;5094278;28;20264;-91
2023/12/16 03:07:03;;;;;;;2.13;1.80;;;14.90;99.90;;;;;;5094386;28;20208;-91
2023/12/16 03:09:32;;;;;;;3.53;1.70;;;14.90;99.90;;;;;;5095176;28;20178;-91
2023/12/16 03:12:00;;;;;;;2.43;1.90;;;14.90;99.90;;;;;;5092973;28;20182;-91
2023/12/16 03:14:29;;;;;;;2.60;1.97;;;14.90;99.90;;;;;;5093161;28;20272;-91
2023/12/16 03:16:57;;;;;;;2.40;2.00;;;14.90;99.90;;;;;;5093203;28;20178;-90
2023/12/16 03:19:27;;;;;;;3.07;1.70;;;14.90;99.90;;;;;;5097464;28;20183;-91
2023/12/16 03:21:53;;;;;;;3.53;2.10;;;14.90;99.90;;;;;;5096425;28;20167;-91
2023/12/16 03:24:19;;;;;;;3.17;1.90;;;14.90;99.90;;;;;;5099589;28;20186;-91
2023/12/16 03:26:47;;;;;;;2.87;1.77;;;14.90;99.90;;;;;;5096225;28;20243;-91
2023/12/16 03:29:13;;;;;;;3.53;1.90;;;14.90;99.90;;;;;;5099570;28;20584;-91
2023/12/16 03:31:42;;;;;;;3.83;1.90;;;14.90;99.90;;;;;;5095800;28;20176;-91
2023/12/16 03:34:14;;;;;;;3.23;2.00;;;14.90;99.90;;;;;;5099914;28;20263;-91
2023/12/16 03:36:43;;;;;;;3.07;1.83;;;14.90;99.90;;;;;;5095344;28;20179;-91
2023/12/16 03:39:12;;;;;;;3.00;2.10;;;14.90;99.90;;;;;;5096013;28;20209;-91
2023/12/16 03:41:41;;;;;;;2.10;1.60;;;14.90;99.90;;;;;;5099678;28;20264;-91
2023/12/16 03:44:07;;;;;;;1.90;1.67;;;14.90;99.90;;;;;;5117581;28;20220;-91
2023/12/16 03:46:35;;;;;;;2.77;2.00;;;14.90;99.90;;;;;;5112956;28;20203;-91
2023/12/16 03:49:04;;;;;;;2.77;1.90;;;14.80;99.90;;;;;;5100588;28;20254;-91
2023/12/16 03:51:33;;;;;;;2.30;1.70;;;14.80;99.90;;;;;;5098145;28;20229;-91
2023/12/16 03:53:58;;;;;;;2.30;1.83;;;14.80;99.90;;;;;;5096640;28;20203;-91
2023/12/16 03:56:27;;;;;;;2.20;1.77;;;14.80;99.90;;;;;;5110271;28;20173;-92
2023/12/16 03:58:53;;;;;;;2.83;2.00;;;14.80;99.90;;;;;;5097065;28;20207;-91
2023/12/16 04:01:18;;;;;;;2.87;1.80;;;14.80;99.90;;;;;;5097473;28;20564;-91
2023/12/16 04:03:44;;;;;;;2.67;1.80;;;14.80;99.90;;;;;;5095828;28;20195;-91
2023/12/16 04:06:14;;;;;;;2.03;1.73;;;14.80;99.90;;;;;;5095870;28;20169;-91
2023/12/16 04:08:41;;;;;;;3.77;2.07;;;14.80;99.90;;;;;;5094168;28;20180;-91
2023/12/16 04:11:10;;;;;;;2.43;1.60;;;14.80;99.90;;;;;;5096021;28;20175;-91
2023/12/16 04:13:39;;;;;;;2.53;1.70;;;14.80;99.90;;;;;;5098692;28;20244;-91
2023/12/16 04:16:05;;;;;;;3.93;1.83;;;14.80;99.90;;;;;;5099577;28;20188;-91
2023/12/16 04:18:35;;;;;;;1.87;1.70;;;14.80;99.90;;;;;;5095870;28;20186;-91
2023/12/16 04:21:03;;;;;;;2.63;1.80;;;14.80;99.90;;;;;;5100741;28;20180;-91
2023/12/16 04:23:29;;;;;;;4.07;1.87;;;14.80;99.90;;;;;;5096841;28;20544;-90
2023/12/16 04:25:58;;;;;;;2.53;1.73;;;14.80;99.90;;;;;;5100668;28;20460;-91
2023/12/16 04:28:27;;;;;;;2.67;1.70;;;14.80;99.90;;;;;;5095654;28;20181;-91
2023/12/16 04:30:52;;;;;;;2.87;1.80;;;14.80;99.90;;;;;;5112167;28;20180;-91
2023/12/16 04:33:21;;;;;;;3.17;2.33;;;14.80;99.90;;;;;;5096184;28;20299;-91
2023/12/16 04:35:50;;;;;;;2.90;2.00;;;14.80;99.90;;;;;;5099614;28;20170;-91
2023/12/16 04:38:15;;;;;;;2.50;1.63;;;14.80;99.90;;;;;;5098575;28;20169;-91
2023/12/16 04:40:41;;;;;;;3.17;1.70;;;14.80;99.90;;;;;;5098234;28;20195;-91
2023/12/16 04:43:10;;;;;;;5.20;2.00;;;14.80;99.90;;;;;;5115462;28;20240;-91
2023/12/16 04:45:39;;;;;;;2.77;1.77;;;14.80;99.90;;;;;;5106084;28;20600;-91
2023/12/16 04:48:07;;;;;;;2.50;1.63;;;14.80;99.90;;;;;;5096068;28;20630;-91
2023/12/16 04:50:36;;;;;;;2.90;1.87;;;14.80;99.90;;;;;;5098393;28;20205;-91
2023/12/16 04:53:02;;;;;;;3.17;1.80;;;14.80;99.90;;;;;;5097666;28;20213;-91
2023/12/16 04:55:31;;;;;;;4.43;1.90;;;14.80;99.90;;;;;;5098204;28;20175;-91
2023/12/16 04:57:57;;;;;;;5.63;2.00;;;14.80;99.90;;;;;;5098249;28;20437;-91
2023/12/16 05:00:22;;;;;;;2.43;1.63;;;14.80;99.90;;;;;;5096370;28;20580;-91
2023/12/16 05:02:48;;;;;;;2.07;1.87;;;14.80;99.90;;;;;;5095278;28;20481;-91
2023/12/16 05:05:14;;;;;;;2.40;1.53;;;14.80;99.90;;;;;;5109678;28;20180;-91
2023/12/16 05:07:40;;;;;;;2.23;1.50;;;14.80;99.90;;;;;;5093891;28;20452;-91
2023/12/16 05:10:10;;;;;;;1.90;1.60;;;14.80;99.90;;;;;;5094600;28;20212;-91
2023/12/16 05:12:38;;;;;;;2.67;1.50;;;14.80;99.90;;;;;;5097820;28;20178;-91
2023/12/16 05:15:04;;;;;;;1.77;1.53;;;14.80;99.90;;;;;;5094228;28;20213;-91
2023/12/16 05:17:30;;;;;;;2.50;1.47;;;14.80;99.90;;;;;;5098433;28;20179;-91
2023/12/16 05:19:58;;;;;;;3.33;1.77;;;14.80;99.90;;;;;;5092633;28;20209;-91
2023/12/16 05:22:33;;;;;;;2.83;1.67;;;14.80;99.90;;;;;;5093469;28;20167;-91
2023/12/16 05:25:02;;;;;;;2.00;1.60;;;14.80;99.90;;;;;;5093041;28;20176;-91
2023/12/16 05:27:28;;;;;;;2.53;1.70;;;14.80;99.90;;;;;;5097397;28;20194;-91
2023/12/16 05:29:58;;;;;;;2.23;1.67;;;14.80;99.90;;;;;;5096712;28;20179;-91
2023/12/16 05:32:24;;;;;;;2.83;1.70;;;14.80;99.90;;;;;;5096814;28;20176;-91
2023/12/16 05:34:56;;;;;;;2.30;1.40;;;14.80;99.90;;;;;;5098230;28;20205;-91
2023/12/16 05:37:25;;;;;;;2.20;1.47;;;14.80;99.90;;;;;;5083902;28;20173;-91
2023/12/16 05:39:50;;;;;;;3.07;1.97;;;14.80;99.90;;;;;;5096925;28;20177;-91
2023/12/16 05:42:16;;;;;;;2.10;1.47;;;14.70;99.90;;;;;;5107119;28;20169;-91
2023/12/16 05:44:45;;;;;;;2.40;1.60;;;14.70;99.90;;;;;;5095006;28;20467;-91
2023/12/16 05:47:11;;;;;;;3.20;1.67;;;14.80;99.90;;;;;;5110276;28;20200;-91
2023/12/16 05:49:39;;;;;;;2.30;1.50;;;14.80;99.90;;;;;;5097200;28;20175;-91
2023/12/16 05:52:08;;;;;;;2.07;1.53;;;14.80;99.90;;;;;;5096629;28;20182;-91
2023/12/16 05:54:40;;;;;;;2.67;1.70;;;14.80;99.90;;;;;;5097032;28;20521;-91
2023/12/16 05:57:06;;;;;;;1.97;1.47;;;14.80;99.90;;;;;;5096788;28;20269;-91
2023/12/16 05:59:31;;;;;;;3.13;1.80;;;14.70;99.90;;;;;;5114467;28;20268;-91
2023/12/16 06:02:00;;;;;;;2.43;1.57;;;14.70;99.90;;;;;;5094415;28;20172;-91
2023/12/16 06:04:26;;;;;;;3.70;1.50;;;14.70;99.90;;;;;;5090211;28;20200;-91
2023/12/16 06:06:51;;;;;;;2.53;1.67;;;14.80;99.90;;;;;;5094464;28;20175;-91
2023/12/16 06:09:20;;;;;;;2.43;1.60;;;14.70;99.90;;;;;;5090582;28;20259;-91
2023/12/16 06:11:48;;;;;;;3.07;1.70;;;14.70;99.90;;;;;;5093817;28;20176;-91
2023/12/16 06:14:17;;;;;;;1.93;1.53;;;14.70;99.90;;;;;;5091584;28;20301;-91
2023/12/16 06:16:46;;;;;;;2.63;1.77;;;14.70;99.90;;;;;;5090117;28;20275;-91
2023/12/16 06:19:15;;;;;;;2.10;1.53;;;14.70;99.90;;;;;;5094419;28;20198;-91
2023/12/16 06:21:40;;;;;;;3.33;1.50;;;14.70;99.90;;;;;;5094981;28;20367;-91
2023/12/16 06:24:10;;;;;;;2.90;1.70;;;14.70;99.90;;;;;;5095140;28;20175;-91
2023/12/16 06:26:36;;;;;;;2.03;1.50;;;14.70;99.90;;;;;;5093718;28;20320;-91
2023/12/16 06:29:02;;;;;;;2.00;1.50;;;14.70;99.80;;;;;;5094396;28;20173;-91
2023/12/16 06:31:31;;;;;;;2.43;1.47;;;14.70;99.80;;;;;;5092546;28;20216;-91
2023/12/16 06:34:00;;;;;;;1.80;1.60;;;14.70;99.70;;;;;;5092497;28;20206;-91
2023/12/16 06:36:25;;;;;;;1.97;1.40;;;14.70;99.70;;;;;;5094620;28;20513;-91
2023/12/16 06:38:52;;;;;;;2.53;1.73;;;14.70;99.70;;;;;;5095075;28;20230;-91
2023/12/16 06:41:21;;;;;;;2.57;1.50;;;14.70;99.70;;;;;;5095791;28;20186;-91
2023/12/16 06:43:50;;;;;;;2.80;1.83;;;14.70;99.60;;;;;;5096322;28;20176;-90
2023/12/16 06:46:19;;;;;;;2.13;1.47;;;14.80;99.70;;;;;;5097136;28;20183;-91
2023/12/16 06:48:45;;;;;;;2.43;1.70;;;14.80;99.60;;;;;;5093233;28;20189;-91
2023/12/16 06:51:11;;;;;;;2.60;1.63;;;14.70;99.60;;;;;;5093593;28;20180;-91
2023/12/16 06:53:36;;;;;;;2.77;1.60;;;14.80;99.60;;;;;;5093425;28;20239;-91
2023/12/16 06:56:06;;;;;;;2.80;1.50;;;14.70;99.60;;;;;;5098665;28;20175;-91
2023/12/16 06:58:33;;;;;;;2.23;1.50;;;14.70;99.50;;;;;;5095370;28;20418;-91
2023/12/16 07:01:01;;;;;;;3.93;1.47;;;14.70;99.50;;;;;;5113174;28;20572;-91
2023/12/16 07:03:30;;;;;;;2.30;1.50;;;14.70;99.50;;;;;;5094422;28;20189;-91
2023/12/16 07:05:58;;;;;;;2.50;1.50;;;14.70;99.40;;;;;;5097250;28;20198;-91
2023/12/16 07:08:27;;;;;;;3.00;1.67;;;14.70;99.40;;;;;;5094079;28;20168;-91
2023/12/16 07:10:56;;;;;;;2.00;1.27;;;14.70;99.40;;;;;;5097813;28;20182;-91
2023/12/16 07:13:24;;;;;;;2.67;1.40;;;14.70;99.30;;;;;;5097999;28;20542;-91
2023/12/16 07:15:53;;;;;;;1.90;1.53;;;14.70;99.30;;;;;;5096864;28;20181;-90
2023/12/16 07:18:22;;;;;;;1.97;1.30;;;14.70;99.30;;;;;;5096492;28;20781;-91
2023/12/16 07:20:50;;;;;;;2.60;1.77;;;14.70;99.30;;;;;;5096787;28;20626;-90
2023/12/16 07:23:19;;;;;;;2.00;1.50;;;14.70;99.30;;;;;;5096443;28;20189;-91
2023/12/16 07:25:45;;;;;;;2.23;1.40;;;14.70;99.30;;;;;;5116505;28;20389;-91
2023/12/16 07:28:14;;;;;;;2.90;1.60;;;14.70;99.40;;;;;;5096232;28;20246;-91
2023/12/16 07:30:40;;;;;;;1.90;1.30;;;14.70;99.40;;;;;;5093371;28;20174;-91
2023/12/16 07:33:08;;;;;;;3.07;1.50;;;14.60;99.30;;;;;;5103228;28;20261;-91
2023/12/16 07:35:38;;;;;;;2.40;1.40;;;14.60;99.40;;;;;;5092389;28;20228;-91
2023/12/16 07:38:04;;;;;;;2.83;1.60;;;14.60;99.40;;;;;;5091544;28;20179;-91
2023/12/16 07:40:36;;;;;;;1.77;1.50;;;14.60;99.40;;;;;;5092909;28;20562;-91
2023/12/16 07:43:02;;;;;;;2.77;1.80;;;14.60;99.40;;;;;;5095341;28;20787;-91
2023/12/16 07:45:32;;;;;;;1.67;1.40;;;14.60;99.40;;;;;;5091030;28;20194;-91
2023/12/16 07:47:58;;;;;;;1.70;1.40;;;14.60;99.40;;;;;;5072190;28;20615;-91
2023/12/16 07:50:26;;;;;;;2.73;1.50;;;14.70;99.40;;;;;;5086784;28;20267;-91
2023/12/16 07:52:55;;;;;;;3.27;1.63;;;14.70;99.30;;;;;;5086305;28;20426;-90
2023/12/16 07:55:27;;;;;;;1.50;1.20;;;14.70;99.20;;;;;;5089580;28;20170;-91
2023/12/16 07:57:55;;;;;;;2.07;1.33;;;14.70;99.10;;;;;;5087934;28;20181;-91
2023/12/16 08:00:24;;;;;;;2.97;1.60;;;14.70;99.10;;;;;;5090983;28;20316;-91
2023/12/16 08:02:53;;;;;;;2.77;1.20;;;14.80;99.00;;;;;;5093165;28;20171;-91
2023/12/16 08:05:19;;;;;;;3.50;1.70;;;14.80;99.00;;;;;;5092356;28;20180;-91
2023/12/16 08:07:50;;;;;;;2.67;1.60;;;14.80;98.90;;;;;;5090809;28;20179;-91
2023/12/16 08:10:16;;;;;;;3.90;2.03;;;14.80;98.90;;;;;;5089157;28;20239;-91
2023/12/16 08:12:44;;;;;;;1.90;1.50;;;14.80;98.80;;;;;;5094666;28;20179;-91
2023/12/16 08:15:10;;;;;;;2.73;1.60;;;14.80;98.90;;;;;;5088790;28;20194;-91
2023/12/16 08:17:37;;;;;;;2.93;1.70;;;14.80;98.90;;;;;;5079509;28;20172;-92
2023/12/16 08:20:04;;;;;;;2.70;1.43;;;14.80;98.90;;;;;;5090394;28;20181;-92
2023/12/16 08:22:33;;;;;;;2.70;1.60;;;14.80;98.90;;;;;;5094064;28;20289;-92
2023/12/16 08:25:02;;;;;;;3.13;1.60;;;14.80;98.90;;;;;;5113028;28;20205;-93
2023/12/16 08:27:33;;;;;;;4.20;1.53;;;14.80;98.90;;;;;;5095345;28;20173;-92
2023/12/16 08:29:59;;;;;;;1.60;1.40;;;14.80;98.80;;;;;;5096313;28;20208;-92
2023/12/16 08:32:25;;;;;;;2.40;1.40;;;14.80;98.80;;;;;;5092983;28;20570;-92
2023/12/16 08:34:53;;;;;;;2.07;1.60;;;14.80;98.80;;;;;;5093978;28;20203;-92
2023/12/16 08:37:20;;;;;;;3.20;1.40;;;14.80;98.80;;;;;;5092066;28;20250;-92
2023/12/16 08:39:48;;;;;;;1.83;1.23;;;14.80;98.80;;;;;;5092495;28;20275;-92
2023/12/16 08:42:17;;;;;;;2.67;1.50;;;14.80;98.70;;;;;;5090344;28;20407;-92
2023/12/16 08:44:42;;;;;;;2.43;1.50;;;14.80;98.60;;;;;;5084593;28;20267;-92
2023/12/16 08:47:08;;;;;;;1.83;1.40;;;14.80;98.60;;;;;;5083967;28;20282;-92
2023/12/16 08:49:34;;;;;;;1.80;1.40;;;14.80;98.60;;;;;;5091312;28;20177;-92
2023/12/16 08:52:03;;;;;;;2.67;1.63;;;14.80;98.60;;;;;;5087566;28;20176;-91
2023/12/16 08:54:32;;;;;;;2.77;1.60;;;14.80;98.50;;;;;;5092418;28;20565;-92
2023/12/16 08:57:02;;;;;;;2.20;1.40;;;14.80;98.60;;;;;;5088826;28;20167;-91
2023/12/16 08:59:31;;;;;;;2.93;1.60;;;14.80;98.50;;;;;;5092496;28;20438;-91
2023/12/16 09:01:57;;;;;;;2.50;1.50;;;14.80;98.50;;;;;;5090857;28;20170;-91
2023/12/16 09:04:22;;;;;;;2.37;1.50;;;14.80;98.40;;;;;;5089648;28;20247;-91
2023/12/16 09:06:51;;;;;;;3.00;1.70;;;14.80;98.40;;;;;;5094523;28;20639;-91
2023/12/16 09:09:21;;;;;;;1.43;1.20;;;14.80;98.50;;;;;;5093620;28;20446;-91
2023/12/16 09:11:46;;;;;;;3.60;1.50;;;14.90;98.70;;;;;;5092561;28;20193;-92
2023/12/16 09:14:21;;;;;;;4.47;1.67;;;14.80;98.70;;;;;;5087649;28;20194;-92
2023/12/16 09:16:50;;;;;;;3.20;1.50;;;14.90;99.00;;;;;;5089080;28;20170;-91
2023/12/16 09:19:18;;;;;;;2.60;1.60;;;14.90;98.90;;;;;;5088251;28;20190;-91
2023/12/16 09:21:44;;;;;;;3.23;1.60;;;15.00;99.00;;;;;;5092527;28;20178;-91
2023/12/16 09:24:10;;;;;;;3.37;1.50;;;15.00;99.10;;;;;;5090982;28;20177;-92
2023/12/16 09:26:39;;;;;;;2.93;1.23;;;15.00;99.10;;;;;;5089987;28;20276;-92
2023/12/16 09:29:09;;;;;;;3.07;1.90;;;15.00;99.20;;;;;;5087532;28;20271;-92
2023/12/16 09:31:34;;;;;;;2.33;1.60;;;15.00;99.30;;;;;;5090125;28;20210;-92
2023/12/16 09:34:00;;;;;;;2.10;1.40;;;15.10;99.30;;;;;;5102736;28;20240;-92
2023/12/16 09:36:30;;;;;;;3.93;1.77;;;15.10;99.30;;;;;;5088118;28;20472;-92
2023/12/16 09:38:59;;;;;;;5.67;1.70;;;15.10;99.30;;;;;;5086536;28;20190;-91
2023/12/16 09:41:30;;;;;;;3.07;1.77;;;15.10;99.30;;;;;;5092227;28;20462;-91
2023/12/16 09:44:03;;;;;;;4.23;1.70;;;15.20;99.30;;;;;;5088630;28;20311;-91
2023/12/16 09:46:33;;;;;;;3.23;1.50;;;15.20;99.30;;;;;;5090682;28;20174;-91
2023/12/16 09:49:05;;;;;;;4.60;1.70;;;15.20;99.20;;;;;;5086999;28;20567;-92
2023/12/16 09:51:34;;;;;;;7.77;1.87;;;15.20;99.20;;;;;;5103868;28;20268;-91
2023/12/16 09:54:03;;;;;;;3.53;1.70;;;15.20;99.20;;;;;;5087634;28;20194;-91
2023/12/16 09:56:32;;;;;;;5.47;1.80;;;15.20;99.20;;;;;;5091031;28;20188;-91
2023/12/16 09:58:59;;;;;;;5.13;2.40;;;15.20;99.20;;;;;;5089622;28;20453;-91
2023/12/16 10:01:28;;;;;;;3.47;1.50;;;15.20;99.10;;;;;;5095866;28;20454;-91
2023/12/16 10:03:54;;;;;;;6.27;2.00;;;15.20;99.00;;;;;;5089403;28;20471;-91
2023/12/16 10:06:23;;;;;;;8.37;2.07;;;15.30;99.00;;;;;;5096620;28;20240;-91
2023/12/16 10:08:52;;;;;;;7.70;2.23;;;15.30;98.90;;;;;;5088223;28;20198;-91
2023/12/16 10:11:18;;;;;;;5.07;2.00;;;15.30;99.00;;;;;;5087029;28;20183;-91
2023/12/16 10:14:03;;;;;;;7.17;2.30;;;15.30;99.00;;;;;;5088460;28;20206;-91
2023/12/16 10:16:29;;;;;;;5.83;1.93;;;15.30;99.10;;;;;;5087082;28;20171;-91
2023/12/16 10:19:02;;;;;;;3.77;1.87;;;15.30;99.40;;;;;;5088858;28;20444;-92
2023/12/16 10:21:34;;;;;;;7.27;2.00;;;15.20;99.00;;;;;;5084269;28;20193;-91
2023/12/16 10:24:01;;;;;;;6.77;2.10;;;15.20;99.10;;;;;;5086544;28;20201;-91
2023/12/16 10:26:36;;;;;;;8.00;2.10;;;15.20;99.20;;;;;;5084458;28;20577;-91
2023/12/16 10:29:04;;;;;;;4.80;1.90;;;15.20;99.10;;;;;;5085827;28;20189;-91
2023/12/16 10:31:34;;;;;;;6.07;2.30;;;15.20;99.10;;;;;;5083304;28;20175;-91
2023/12/16 10:34:06;;;;;;;6.33;2.17;;;15.20;99.20;;;;;;5083400;28;20218;-90
2023/12/16 10:36:35;;;;;;;6.27;2.10;;;15.30;99.20;;;;;;5087496;28;20169;-91
2023/12/16 10:39:03;;;;;;;6.93;2.40;;;15.30;99.10;;;;;;5088066;28;20174;-91
2023/12/16 10:41:32;;;;;;;6.70;2.27;;;15.30;99.20;;;;;;5084880;28;20514;-91
2023/12/16 10:44:01;;;;;;;11.40;2.33;;;15.30;99.20;;;;;;5085124;28;20535;-92
2023/12/16 10:46:35;;;;;;;6.53;2.20;;;15.20;99.10;;;;;;5086546;28;20181;-91
2023/12/16 10:49:02;;;;;;;8.47;2.67;;;15.20;99.20;;;;;;5083098;28;20178;-92
2023/12/16 10:51:34;;;;;;;6.57;2.37;;;15.20;99.20;;;;;;5080682;28;20178;-91
2023/12/16 10:54:17;;;;;;;6.57;2.10;;;15.20;99.20;;;;;;5080490;28;20238;-91
2023/12/16 10:57:22;;;;;;;8.30;2.50;;;15.20;99.30;;;;;;5085593;28;20169;-91
2023/12/16 11:00:11;;;;;;;7.10;2.53;;;15.20;99.30;;;;;;5034787;28;20184;-90
2023/12/16 11:03:08;;;;;;;6.60;2.00;;;15.20;99.30;;;;;;5088052;28;20338;-91
2023/12/16 11:05:46;;;;;;;14.13;2.60;;;15.20;99.30;;;;;;5087351;28;20176;-91
2023/12/16 11:08:12;;;;;;;6.00;1.97;;;15.20;99.30;;;;;;5087683;28;20174;-91
2023/12/16 11:10:41;;;;;;;9.23;2.00;;;15.20;99.30;;;;;;5086394;28;20182;-91
2023/12/16 11:13:07;;;;;;;7.70;2.13;;;15.30;99.30;;;;;;5096008;28;20171;-90
2023/12/16 11:15:34;;;;;;;6.37;2.10;;;15.30;99.20;;;;;;5087966;28;20187;-91
2023/12/16 11:18:18;;;;;;;6.50;2.20;;;15.30;99.20;;;;;;5086881;28;20301;-91
2023/12/16 11:20:54;;;;;;;8.87;2.83;;;15.30;99.20;;;;;;5086006;28;20510;-90
2023/12/16 11:23:28;;;;;;;7.97;1.97;;;15.30;99.20;;;;;;5083712;28;20260;-90
2023/12/16 11:26:04;;;;;;;12.07;2.57;;;15.30;99.10;;;;;;5086672;28;20557;-90
2023/12/16 11:28:33;;;;;;;5.57;2.03;;;15.30;99.10;;;;;;5084809;28;20169;-90
2023/12/16 11:30:59;;;;;;;6.30;2.23;;;15.30;99.00;;;;;;5086551;28;20213;-91
2023/12/16 11:34:05;;;;;;;5.40;2.50;;;15.40;99.00;;;;;;5082759;28;20316;-90
2023/12/16 11:37:09;;;;;;;8.83;2.30;;;15.40;98.90;;;;;;5072468;28;20186;-91
2023/12/16 11:39:48;;;;;;;5.67;2.10;;;15.40;98.90;;;;;;5094208;28;20386;-91
2023/12/16 11:42:37;;;;;;;7.00;2.77;;;15.40;98.80;;;;;;5088549;28;20278;-90
2023/12/16 11:45:06;;;;;;;6.67;2.17;;;15.40;98.70;;;;;;5089493;28;20197;-91
2023/12/16 11:47:32;;;;;;;4.70;2.10;;;15.40;98.60;;;;;;5089784;28;20276;-91
2023/12/16 11:49:58;;;;;;;5.07;1.80;;;15.40;98.50;;;;;;5091654;28;20207;-91
2023/12/16 11:52:24;;;;;;;7.23;2.23;;;15.40;98.50;;;;;;5086670;28;20443;-90
2023/12/16 11:54:55;;;;;;;10.33;2.17;;;15.40;98.40;;;;;;5086177;28;20300;-91
2023/12/16 11:57:26;;;;;;;5.03;2.07;;;15.40;98.30;;;;;;5087656;28;20425;-91
2023/12/16 11:59:52;;;;;;;6.57;2.33;;;15.40;98.20;;;;;;5084273;28;20178;-91
2023/12/16 12:02:19;;;;;;;7.50;2.40;;;15.40;98.20;;;;;;5083690;28;20178;-91
2023/12/16 12:04:51;;;;;;;6.33;2.07;;;15.30;98.20;;;;;;5083301;28;20185;-91
2023/12/16 12:07:20;;;;;;;6.33;2.20;;;15.40;98.20;;;;;;5083648;28;20182;-90
2023/12/16 12:09:48;;;;;;;6.40;2.07;;;15.30;98.20;;;;;;5086398;28;20355;-91
2023/12/16 12:12:16;;;;;;;8.70;2.30;;;15.30;98.20;;;;;;5085436;28;20177;-91
2023/12/16 12:14:46;;;;;;;5.03;1.97;;;15.30;98.20;;;;;;5087569;28;20276;-90
2023/12/16 12:17:14;;;;;;;7.80;2.50;;;15.30;98.20;;;;;;5089024;28;20189;-91
2023/12/16 12:19:46;;;;;;;7.33;2.40;;;15.30;98.20;;;;;;5094685;28;20268;-91
2023/12/16 12:22:15;;;;;;;5.60;2.03;;;15.30;98.10;;;;;;5094674;28;20417;-91
2023/12/16 12:24:41;;;;;;;5.23;2.20;;;15.30;98.20;;;;;;5092619;28;20176;-91
2023/12/16 12:27:10;;;;;;;6.30;2.30;;;15.30;98.10;;;;;;5087612;28;20210;-91
2023/12/16 12:29:55;;;;;;;5.53;2.30;;;15.30;98.10;;;;;;5092610;28;20571;-91
2023/12/16 12:32:46;;;;;;;6.63;1.93;;;15.30;98.10;;;;;;5086723;28;20187;-91
2023/12/16 12:35:14;;;;;;;6.63;2.20;;;15.30;98.10;;;;;;5078177;28;20210;-91
2023/12/16 12:37:43;;;;;;;5.93;2.00;;;15.30;98.00;;;;;;5107561;28;20536;-91
2023/12/16 12:40:12;;;;;;;4.47;2.20;;;15.30;98.00;;;;;;5084924;28;20181;-91
2023/12/16 12:42:57;;;;;;;7.00;2.23;;;15.30;97.90;;;;;;5087872;28;20224;-91
2023/12/16 12:45:29;;;;;;;4.77;2.00;;;15.30;97.90;;;;;;5086476;28;20491;-91
2023/12/16 12:48:17;;;;;;;5.90;2.20;;;15.40;98.20;;;;;;5070224;28;20175;-91
2023/12/16 12:50:48;;;;;;;6.03;2.43;;;15.40;98.00;;;;;;5088460;28;20314;-91
2023/12/16 12:53:24;;;;;;;7.03;2.17;;;15.30;97.90;;;;;;5091672;28;20173;-91
2023/12/16 12:56:01;;;;;;;4.53;2.20;;;15.40;97.90;;;;;;5091449;28;20562;-91